Time;durP1;ratioP1;P1;durP2;ratioP2;P2;SDS_P1;SDS_P2;PMS_P1;PMS_P2;Temp;Humidity;BMP_temperature;BMP_pressure;BME280_temperature;BME280_humidity;BME280_pressure;Samples;Min_cycle;Max_cycle;Signal;HPM_P1;HPM_P2
2022/11/01 00:01:32;;;;;;;;;1.00;1.00;;;;;;;;4989120;28;45402;-67
2022/11/01 00:03:57;;;;;;;;;3.00;1.00;;;;;;;;5005507;28;45491;-67
2022/11/01 00:06:23;;;;;;;;;2.50;2.50;;;;;;;;4994536;28;45766;-67
2022/11/01 00:08:48;;;;;;;;;0.25;0.25;;;;;;;;5007195;28;45441;-67
2022/11/01 00:11:15;;;;;;;;;0.00;0.00;;;;;;;;4992335;28;45396;-67
2022/11/01 00:13:40;;;;;;;;;1.50;1.00;;;;;;;;4996729;28;45660;-67
2022/11/01 00:16:06;;;;;;;;;1.50;1.00;;;;;;;;5010097;28;45474;-68
2022/11/01 00:18:31;;;;;;;;;3.50;2.00;;;;;;;;5000434;28;46633;-67
2022/11/01 00:20:56;;;;;;;;;0.75;0.50;;;;;;;;5017669;28;45438;-68
2022/11/01 00:23:22;;;;;;;;;1.00;0.00;;;;;;;;5016552;28;45389;-67
2022/11/01 00:25:47;;;;;;;;;1.75;1.25;;;;;;;;5000030;28;45613;-66
2022/11/01 00:28:12;;;;;;;;;2.00;0.00;;;;;;;;5002446;28;45772;-67
2022/11/01 00:30:38;;;;;;;;;2.00;0.00;;;;;;;;5000172;28;45709;-67
2022/11/01 00:33:03;;;;;;;;;0.00;0.00;;;;;;;;4998787;28;45692;-69
2022/11/01 00:35:30;;;;;;;;;1.00;0.00;;;;;;;;5013632;28;45696;-66
2022/11/01 00:37:56;;;;;;;;;1.00;1.00;;;;;;;;5076446;22;45594;-83
2022/11/01 00:40:22;;;;;;;;;0.00;0.00;;;;;;;;5053039;28;45484;-83
2022/11/01 00:42:47;;;;;;;;;1.00;1.00;;;;;;;;5070540;27;45408;-83
2022/11/01 00:45:12;;;;;;;;;1.00;1.00;;;;;;;;5056556;28;45400;-84
2022/11/01 00:47:38;;;;;;;;;1.00;1.00;;;;;;;;5057438;28;47051;-82
2022/11/01 00:50:03;;;;;;;;;1.50;1.00;;;;;;;;5078002;28;45533;-83
2022/11/01 00:52:28;;;;;;;;;0.00;0.00;;;;;;;;5080951;28;45496;-83
2022/11/01 00:54:54;;;;;;;;;0.25;0.00;;;;;;;;5068492;28;45769;-84
2022/11/01 00:57:19;;;;;;;;;0.00;0.00;;;;;;;;5067364;28;46077;-83
2022/11/01 00:59:44;;;;;;;;;1.00;0.00;;;;;;;;5052845;28;45603;-84
2022/11/01 01:02:09;;;;;;;;;0.00;0.00;;;;;;;;5074397;27;46618;-84
2022/11/01 01:04:40;;;;;;;;;0.00;0.00;;;;;;;;5052514;28;46457;-84
2022/11/01 01:07:05;;;;;;;;;1.75;0.00;;;;;;;;5052286;28;46470;-84
2022/11/01 01:09:30;;;;;;;;;1.00;1.00;;;;;;;;5081119;28;45762;-85
2022/11/01 01:11:57;;;;;;;;;3.00;0.00;;;;;;;;5079625;28;45754;-84
2022/11/01 01:14:22;;;;;;;;;0.00;0.00;;;;;;;;5079106;28;45805;-84
2022/11/01 01:16:48;;;;;;;;;0.00;0.00;;;;;;;;5083444;27;45683;-83
2022/11/01 01:19:13;;;;;;;;;4.67;3.00;;;;;;;;5059330;28;45094;-83
2022/11/01 01:21:38;;;;;;;;;0.75;0.75;;;;;;;;5076424;28;45493;-84
2022/11/01 01:24:04;;;;;;;;;0.25;0.00;;;;;;;;5080277;28;45462;-83
2022/11/01 01:26:29;;;;;;;;;0.00;0.00;;;;;;;;5080400;28;45405;-85
2022/11/01 01:28:54;;;;;;;;;2.25;1.00;;;;;;;;5067480;28;45642;-82
2022/11/01 01:31:19;;;;;;;;;2.00;0.00;;;;;;;;5081994;27;45750;-84
2022/11/01 01:33:45;;;;;;;;;2.00;0.33;;;;;;;;5072693;28;45768;-83
2022/11/01 01:36:10;;;;;;;;;1.00;0.00;;;;;;;;5059915;28;47276;-83
2022/11/01 01:38:35;;;;;;;;;1.67;0.00;;;;;;;;5082194;28;45388;-83
2022/11/01 01:43:44;;;;;;;;;1.33;0.33;;;;;;;;5085316;27;45521;-83
2022/11/01 01:46:10;;;;;;;;;1.33;1.00;;;;;;;;5078915;28;46185;-83
2022/11/01 01:48:36;;;;;;;;;1.67;0.33;;;;;;;;5080408;28;45362;-83
2022/11/01 01:51:04;;;;;;;;;0.00;0.00;;;;;;;;5068931;27;45462;-82
2022/11/01 01:53:37;;;;;;;;;0.00;0.00;;;;;;;;5061968;28;45601;-84
2022/11/01 01:56:04;;;;;;;;;1.33;0.33;;;;;;;;5061624;28;48816;-84
2022/11/01 01:58:38;;;;;;;;;1.00;0.00;;;;;;;;5078485;28;45666;-83
2022/11/01 02:01:04;;;;;;;;;0.00;0.00;;;;;;;;5060623;28;45788;-83
2022/11/01 02:03:31;;;;;;;;;0.67;0.00;;;;;;;;5080126;28;45329;-83
2022/11/01 02:06:02;;;;;;;;;2.33;0.00;;;;;;;;5050775;28;46915;-84
2022/11/01 02:08:29;;;;;;;;;0.33;0.00;;;;;;;;5076654;28;45471;-81
2022/11/01 02:10:56;;;;;;;;;0.00;0.00;;;;;;;;5070294;28;45329;-82
2022/11/01 02:13:21;;;;;;;;;1.67;0.00;;;;;;;;5080127;27;45458;-81
2022/11/01 02:16:07;;;;;;;;;7.33;0.00;;;;;;;;5078580;27;45607;-82
2022/11/01 02:18:47;;;;;;;;;2.33;1.00;;;;;;;;5061831;28;45433;-84
2022/11/01 02:21:21;;;;;;;;;0.00;0.00;;;;;;;;5064959;27;45791;-82
2022/11/01 02:24:05;;;;;;;;;1.33;0.00;;;;;;;;5065323;28;45682;-83
2022/11/01 02:26:57;;;;;;;;;2.00;0.67;;;;;;;;5059214;27;45382;-82
2022/11/01 02:29:46;;;;;;;;;0.00;0.00;;;;;;;;5044000;28;44865;-81
2022/11/01 02:32:16;;;;;;;;;0.00;0.00;;;;;;;;5074431;28;45415;-83
2022/11/01 02:34:51;;;;;;;;;1.33;1.00;;;;;;;;5079279;27;45725;-82
2022/11/01 02:37:30;;;;;;;;;0.00;0.00;;;;;;;;5058056;28;48057;-82
2022/11/01 02:39:59;;;;;;;;;0.67;0.00;;;;;;;;5077423;28;45308;-83
2022/11/01 02:42:30;;;;;;;;;0.33;0.33;;;;;;;;5076593;28;45332;-83
2022/11/01 02:45:27;;;;;;;;;0.00;0.00;;;;;;;;5078768;28;46128;-83
2022/11/01 02:47:57;;;;;;;;;0.67;0.00;;;;;;;;5070241;28;46125;-82
2022/11/01 02:50:23;;;;;;;;;1.00;0.00;;;;;;;;5045601;28;45858;-83
2022/11/01 02:52:50;;;;;;;;;3.00;0.00;;;;;;;;5060437;28;45538;-83
2022/11/01 02:55:28;;;;;;;;;2.67;1.00;;;;;;;;5056335;28;45455;-83
2022/11/01 02:57:54;;;;;;;;;0.00;0.00;;;;;;;;5073996;28;45382;-82
2022/11/01 03:00:22;;;;;;;;;0.67;0.67;;;;;;;;5059513;28;45610;-84
2022/11/01 03:02:48;;;;;;;;;7.67;1.00;;;;;;;;5059220;28;45770;-83
2022/11/01 03:05:17;;;;;;;;;1.67;0.00;;;;;;;;5057584;28;45792;-83
2022/11/01 03:07:45;;;;;;;;;1.00;1.00;;;;;;;;5077949;28;45449;-84
2022/11/01 03:10:11;;;;;;;;;1.00;0.00;;;;;;;;5059576;28;45508;-83
2022/11/01 03:12:41;;;;;;;;;0.00;0.00;;;;;;;;5059667;28;45467;-84
2022/11/01 03:15:21;;;;;;;;;0.00;0.00;;;;;;;;5075619;28;45412;-83
2022/11/01 03:17:55;;;;;;;;;1.00;0.00;;;;;;;;5077134;28;45584;-82
2022/11/01 03:20:20;;;;;;;;;1.33;0.67;;;;;;;;5073124;28;45433;-83
2022/11/01 03:22:48;;;;;;;;;1.67;0.67;;;;;;;;5079079;28;45521;-83
2022/11/01 03:25:43;;;;;;;;;2.33;0.67;;;;;;;;5064321;28;45526;-83
2022/11/01 03:28:20;;;;;;;;;0.33;0.33;;;;;;;;5046537;28;47165;-83
2022/11/01 03:30:55;;;;;;;;;0.33;0.33;;;;;;;;5053931;28;45780;-83
2022/11/01 03:33:21;;;;;;;;;0.00;0.00;;;;;;;;5071733;28;45725;-82
2022/11/01 03:35:48;;;;;;;;;0.00;0.00;;;;;;;;5066937;28;45611;-82
2022/11/01 03:38:16;;;;;;;;;1.00;0.00;;;;;;;;5068858;28;45703;-83
2022/11/01 03:40:45;;;;;;;;;0.00;0.00;;;;;;;;5067569;28;45856;-83
2022/11/01 03:43:12;;;;;;;;;2.00;0.67;;;;;;;;5056162;28;45320;-82
2022/11/01 03:45:39;;;;;;;;;0.67;0.00;;;;;;;;5059576;28;45469;-81
2022/11/01 03:48:04;;;;;;;;;0.00;0.00;;;;;;;;5070468;28;46115;-83
2022/11/01 03:50:30;;;;;;;;;5.33;1.00;;;;;;;;5059022;28;45397;-83
2022/11/01 03:52:55;;;;;;;;;0.33;0.33;;;;;;;;5071972;28;45428;-84
2022/11/01 03:55:21;;;;;;;;;1.33;0.00;;;;;;;;5078008;28;45574;-82
2022/11/01 03:57:50;;;;;;;;;1.67;0.67;;;;;;;;5077705;28;45425;-82
2022/11/01 04:00:20;;;;;;;;;2.33;0.00;;;;;;;;5077110;28;45758;-82
2022/11/01 04:02:46;;;;;;;;;1.67;0.33;;;;;;;;5072398;28;45702;-83
2022/11/01 04:05:11;;;;;;;;;0.00;0.00;;;;;;;;5072880;28;45773;-82
2022/11/01 04:07:37;;;;;;;;;2.00;0.67;;;;;;;;5080599;28;45551;-81
2022/11/01 04:10:03;;;;;;;;;0.00;0.00;;;;;;;;5073808;28;45421;-82
2022/11/01 04:12:28;;;;;;;;;0.33;0.33;;;;;;;;5069942;28;45448;-82
2022/11/01 04:20:34;;;;;;;;;3.33;0.00;;;;;;;;5058653;28;45809;-84
2022/11/01 04:23:00;;;;;;;;;2.00;0.00;;;;;;;;5068309;28;45652;-84
2022/11/01 04:25:26;;;;;;;;;0.67;0.67;;;;;;;;5078129;28;46032;-83
2022/11/01 04:27:51;;;;;;;;;3.67;0.67;;;;;;;;5060148;28;46400;-84
2022/11/01 04:30:16;;;;;;;;;4.00;0.67;;;;;;;;5076152;28;45518;-82
2022/11/01 04:32:43;;;;;;;;;1.33;0.67;;;;;;;;5072954;27;45390;-85
2022/11/01 04:35:10;;;;;;;;;3.67;0.33;;;;;;;;5068915;28;46005;-87
2022/11/01 04:37:36;;;;;;;;;0.67;0.67;;;;;;;;5065863;28;47280;-85
2022/11/01 04:40:02;;;;;;;;;3.33;1.33;;;;;;;;5087072;28;45514;-89
2022/11/01 04:42:28;;;;;;;;;4.00;0.00;;;;;;;;5086119;27;45014;-83
2022/11/01 04:44:53;;;;;;;;;2.00;1.00;;;;;;;;5070341;28;45476;-83
2022/11/01 04:47:19;;;;;;;;;0.00;0.00;;;;;;;;5075947;28;45250;-83
2022/11/01 04:49:44;;;;;;;;;5.33;2.00;;;;;;;;5054496;28;45491;-81
2022/11/01 04:52:10;;;;;;;;;0.33;0.00;;;;;;;;5074869;28;45502;-83
2022/11/01 04:54:35;;;;;;;;;0.33;0.33;;;;;;;;5045637;28;45736;-85
2022/11/01 04:57:00;;;;;;;;;1.67;0.33;;;;;;;;5054744;28;46581;-84
2022/11/01 04:59:26;;;;;;;;;0.00;0.00;;;;;;;;5078944;28;45774;-82
2022/11/01 05:01:51;;;;;;;;;2.67;1.33;;;;;;;;5082824;28;45399;-83
2022/11/01 05:04:17;;;;;;;;;1.00;1.00;;;;;;;;5061390;28;46200;-83
2022/11/01 05:06:42;;;;;;;;;3.00;1.67;;;;;;;;5072326;28;46224;-82
2022/11/01 05:09:07;;;;;;;;;1.00;0.33;;;;;;;;5053682;28;45474;-82
2022/11/01 05:11:35;;;;;;;;;0.00;0.00;;;;;;;;5067213;28;46192;-84
2022/11/01 05:14:00;;;;;;;;;3.00;2.00;;;;;;;;5058563;28;45525;-85
2022/11/01 05:16:26;;;;;;;;;1.67;0.67;;;;;;;;5053775;28;46902;-84
2022/11/01 05:18:51;;;;;;;;;3.00;0.00;;;;;;;;5055804;28;45406;-86
2022/11/01 05:21:16;;;;;;;;;6.33;2.67;;;;;;;;5053235;28;45465;-84
2022/11/01 05:23:42;;;;;;;;;2.00;1.00;;;;;;;;5080471;27;45963;-84
2022/11/01 05:26:07;;;;;;;;;1.33;1.33;;;;;;;;5076373;27;46403;-84
2022/11/01 05:28:33;;;;;;;;;0.67;0.67;;;;;;;;5062081;28;45727;-84
2022/11/01 05:30:59;;;;;;;;;0.67;0.67;;;;;;;;5074546;27;45862;-82
2022/11/01 05:33:24;;;;;;;;;1.67;0.67;;;;;;;;5052353;28;47327;-83
2022/11/01 05:35:49;;;;;;;;;2.00;0.67;;;;;;;;5051639;28;47154;-82
2022/11/01 05:38:15;;;;;;;;;2.33;1.67;;;;;;;;5034278;28;1150884;-85
2022/11/01 05:40:40;;;;;;;;;2.67;1.67;;;;;;;;5062310;28;45456;-83
2022/11/01 05:43:05;;;;;;;;;3.00;1.33;;;;;;;;5072893;28;45601;-85
2022/11/01 05:45:31;;;;;;;;;0.33;0.33;;;;;;;;5084161;27;47410;-84
2022/11/01 05:48:00;;;;;;;;;1.00;0.00;;;;;;;;5078296;27;45429;-82
2022/11/01 05:50:26;;;;;;;;;1.33;1.00;;;;;;;;5079871;28;45493;-82
2022/11/01 05:52:51;;;;;;;;;3.67;0.33;;;;;;;;5063677;27;45454;-84
2022/11/01 05:55:16;;;;;;;;;1.67;0.67;;;;;;;;5060753;28;47016;-84
2022/11/01 05:57:42;;;;;;;;;0.67;0.67;;;;;;;;5076336;28;45762;-83
2022/11/01 06:00:09;;;;;;;;;4.00;2.00;;;;;;;;5080012;28;45767;-85
2022/11/01 06:02:34;;;;;;;;;5.00;1.00;;;;;;;;5083103;27;45518;-84
2022/11/01 06:05:08;;;;;;;;;0.00;0.00;;;;;;;;5065886;28;47408;-87
2022/11/01 06:07:36;;;;;;;;;3.67;1.00;;;;;;;;5062933;28;45425;-87
2022/11/01 06:10:02;;;;;;;;;6.00;1.00;;;;;;;;5069541;28;45512;-88
2022/11/01 06:12:27;;;;;;;;;3.00;1.00;;;;;;;;5088757;27;45850;-84
2022/11/01 06:14:56;;;;;;;;;2.00;1.67;;;;;;;;5087441;27;45288;-87
2022/11/01 06:17:21;;;;;;;;;2.00;1.00;;;;;;;;5063333;28;45757;-85
2022/11/01 06:19:46;;;;;;;;;1.00;1.00;;;;;;;;5078202;27;45723;-87
2022/11/01 06:22:13;;;;;;;;;6.33;2.00;;;;;;;;5085930;27;45387;-87
2022/11/01 06:24:38;;;;;;;;;3.00;0.00;;;;;;;;5072444;28;45697;-88
2022/11/01 06:27:04;;;;;;;;;0.67;0.67;;;;;;;;5076942;28;45427;-83
2022/11/01 06:29:30;;;;;;;;;4.67;2.00;;;;;;;;5059553;28;45487;-82
2022/11/01 06:32:06;;;;;;;;;2.00;0.00;;;;;;;;5055294;28;46728;-86
2022/11/01 06:34:38;;;;;;;;;5.67;2.67;;;;;;;;5062754;28;47140;-84
2022/11/01 06:37:19;;;;;;;;;3.00;1.00;;;;;;;;5067523;28;45471;-85
2022/11/01 06:39:48;;;;;;;;;4.33;0.67;;;;;;;;5059706;28;45821;-85
2022/11/01 06:42:18;;;;;;;;;3.67;2.33;;;;;;;;5068139;28;45851;-83
2022/11/01 06:44:55;;;;;;;;;1.00;1.00;;;;;;;;5074809;28;46795;-84
2022/11/01 06:47:26;;;;;;;;;4.00;2.00;;;;;;;;5067529;28;45706;-82
2022/11/01 06:49:57;;;;;;;;;4.33;1.00;;;;;;;;5068553;28;45486;-83
2022/11/01 06:52:55;;;;;;;;;3.67;2.00;;;;;;;;5077987;28;45549;-84
2022/11/01 06:58:08;;;;;;;;;3.00;0.67;;;;;;;;5079530;28;45580;-84
2022/11/01 07:00:56;;;;;;;;;3.33;2.67;;;;;;;;5073079;27;45581;-84
2022/11/01 07:03:44;;;;;;;;;4.00;2.00;;;;;;;;5071341;27;45372;-81
2022/11/01 07:06:10;;;;;;;;;2.67;1.00;;;;;;;;5062602;27;46342;-83
2022/11/01 07:08:57;;;;;;;;;8.00;1.67;;;;;;;;5070313;27;45625;-85
2022/11/01 07:11:25;;;;;;;;;3.00;1.00;;;;;;;;5056767;28;45512;-84
2022/11/01 07:17:54;;;;;;;;;;;;;;;;;;;;;
2022/11/01 07:20:35;;;;;;;;;7.67;5.00;;;;;;;;5062828;28;72513;-83
2022/11/01 07:23:07;;;;;;;;;3.67;1.00;;;;;;;;5060028;28;45387;-86
2022/11/01 07:25:35;;;;;;;;;2.00;0.67;;;;;;;;5055338;28;45883;-89
2022/11/01 07:28:02;;;;;;;;;2.00;1.33;;;;;;;;5080800;28;45623;-89
2022/11/01 07:30:27;;;;;;;;;1.33;1.33;;;;;;;;5079779;28;45327;-86
2022/11/01 07:33:00;;;;;;;;;2.00;1.33;;;;;;;;5048906;28;45300;-88
2022/11/01 07:35:26;;;;;;;;;4.67;1.00;;;;;;;;5082293;28;45461;-86
2022/11/01 07:37:51;;;;;;;;;5.00;1.00;;;;;;;;5060534;28;45771;-85
2022/11/01 07:40:17;;;;;;;;;5.67;2.00;;;;;;;;5058074;28;45058;-83
2022/11/01 07:42:44;;;;;;;;;3.33;2.00;;;;;;;;5046989;28;45443;-83
2022/11/01 07:45:10;;;;;;;;;1.00;1.00;;;;;;;;5065099;27;45842;-90
2022/11/01 07:47:44;;;;;;;;;3.00;2.00;;;;;;;;5078604;27;46063;-91
2022/11/01 07:50:10;;;;;;;;;7.33;2.67;;;;;;;;5052091;28;45581;-84
2022/11/01 07:52:35;;;;;;;;;2.33;1.33;;;;;;;;5054611;27;45505;-85
2022/11/01 07:55:01;;;;;;;;;0.00;0.00;;;;;;;;5061012;28;45575;-87
2022/11/01 07:57:26;;;;;;;;;6.67;2.33;;;;;;;;5054575;27;46793;-84
2022/11/01 07:59:51;;;;;;;;;5.67;1.00;;;;;;;;5053731;28;45579;-84
2022/11/01 08:02:17;;;;;;;;;2.67;2.00;;;;;;;;5077049;27;45259;-84
2022/11/01 08:04:43;;;;;;;;;2.67;1.00;;;;;;;;5074913;28;45813;-84
2022/11/01 08:07:08;;;;;;;;;0.67;0.67;;;;;;;;5050586;28;46939;-85
2022/11/01 08:09:34;;;;;;;;;1.67;1.67;;;;;;;;5067917;28;45772;-82
2022/11/01 08:12:00;;;;;;;;;1.00;1.00;;;;;;;;5046510;28;45469;-83
2022/11/01 08:14:25;;;;;;;;;2.67;1.67;;;;;;;;5059536;27;46280;-85
2022/11/01 08:16:54;;;;;;;;;2.00;1.33;;;;;;;;5060364;28;47091;-88
2022/11/01 08:19:20;;;;;;;;;3.33;0.00;;;;;;;;5072548;27;45413;-87
2022/11/01 08:21:49;;;;;;;;;0.67;0.67;;;;;;;;5064981;28;46036;-85
2022/11/01 08:24:14;;;;;;;;;3.67;1.33;;;;;;;;5053572;28;46697;-84
2022/11/01 08:26:40;;;;;;;;;4.33;1.33;;;;;;;;5074942;28;45639;-87
2022/11/01 08:29:05;;;;;;;;;0.67;0.67;;;;;;;;5054139;28;45794;-86
2022/11/01 08:31:31;;;;;;;;;3.33;2.33;;;;;;;;5057884;28;45580;-86
2022/11/01 08:33:57;;;;;;;;;2.67;2.00;;;;;;;;5078662;27;45849;-88
2022/11/01 08:36:22;;;;;;;;;0.33;0.33;;;;;;;;5070402;27;45362;-85
2022/11/01 08:38:49;;;;;;;;;0.00;0.00;;;;;;;;5033597;28;45640;-87
2022/11/01 08:41:17;;;;;;;;;4.00;3.00;;;;;;;;5056194;28;45356;-89
2022/11/01 08:43:43;;;;;;;;;2.00;1.00;;;;;;;;5053349;28;45607;-87
2022/11/01 08:46:09;;;;;;;;;1.00;0.00;;;;;;;;5064035;28;45459;-84
2022/11/01 08:48:35;;;;;;;;;2.00;1.00;;;;;;;;5037644;28;45563;-84
2022/11/01 08:51:04;;;;;;;;;4.33;0.67;;;;;;;;5054755;28;45463;-88
2022/11/01 08:53:37;;;;;;;;;2.00;0.33;;;;;;;;5056076;28;45380;-89
2022/11/01 08:56:02;;;;;;;;;0.00;0.00;;;;;;;;5048607;28;45940;-90
2022/11/01 08:58:38;;;;;;;;;2.00;1.00;;;;;;;;5043978;28;45451;-87
2022/11/01 09:01:04;;;;;;;;;4.67;2.00;;;;;;;;5043655;28;45558;-86
2022/11/01 09:03:32;;;;;;;;;2.00;1.00;;;;;;;;5042078;28;45808;-84
2022/11/01 09:06:18;;;;;;;;;;;;;;;;;;;;;
2022/11/01 09:08:52;;;;;;;;;3.75;1.00;;;;;;;;5051649;28;72570;-85
2022/11/01 09:11:18;;;;;;;;;1.25;0.75;;;;;;;;5040052;28;46100;-87
2022/11/01 09:13:44;;;;;;;;;0.00;0.00;;;;;;;;5054837;28;44947;-86
2022/11/01 09:16:11;;;;;;;;;2.00;1.00;;;;;;;;5034774;28;46766;-84
2022/11/01 09:18:36;;;;;;;;;1.75;0.50;;;;;;;;5047538;28;45687;-86
2022/11/01 09:21:06;;;;;;;;;4.00;1.00;;;;;;;;5046442;28;45460;-87
2022/11/01 09:23:32;;;;;;;;;0.00;0.00;;;;;;;;5040093;28;46977;-88
2022/11/01 09:26:01;;;;;;;;;1.00;1.00;;;;;;;;5033902;28;47406;-82
2022/11/01 09:28:30;;;;;;;;;1.25;1.00;;;;;;;;5045605;28;45904;-85
2022/11/01 09:30:56;;;;;;;;;0.50;0.50;;;;;;;;5043826;28;45684;-89
2022/11/01 09:33:25;;;;;;;;;0.00;0.00;;;;;;;;5038209;28;45675;-87
2022/11/01 09:35:51;;;;;;;;;2.25;2.25;;;;;;;;5053904;28;45907;-85
2022/11/01 09:38:16;;;;;;;;;0.50;0.50;;;;;;;;5066280;27;45889;-89
2022/11/01 09:43:45;;;;;;;;;3.50;2.00;;;;;;;;4996287;28;45543;-87
2022/11/01 09:46:30;;;;;;;;;3.75;0.25;;;;;;;;5068859;28;45549;-89
2022/11/01 09:49:11;;;;;;;;;;;;;;;;;;;;;
2022/11/01 09:51:50;;;;;;;;;1.00;1.00;;;;;;;;5082369;28;69371;-92
2022/11/01 09:54:19;;;;;;;;;1.00;0.50;;;;;;;;5084140;28;45295;-89
2022/11/01 09:56:53;;;;;;;;;2.00;1.00;;;;;;;;5082770;28;45422;-89
2022/11/01 09:59:21;;;;;;;;;2.75;1.00;;;;;;;;5081354;28;45437;-86
2022/11/01 10:02:05;;;;;;;;;2.00;1.00;;;;;;;;5072191;28;45505;-80
2022/11/01 10:04:33;;;;;;;;;3.50;0.50;;;;;;;;5076964;28;45507;-87
2022/11/01 10:07:25;;;;;;;;;2.25;1.00;;;;;;;;5077224;28;46118;-87
2022/11/01 10:10:02;;;;;;;;;1.00;1.00;;;;;;;;5062286;28;45307;-90
2022/11/01 10:12:40;;;;;;;;;2.25;2.00;;;;;;;;5053907;28;45309;-88
2022/11/01 10:15:27;;;;;;;;;1.25;1.25;;;;;;;;5078441;28;45206;-89
2022/11/01 10:18:04;;;;;;;;;1.50;1.00;;;;;;;;5080101;28;45548;-89
2022/11/01 10:23:41;;;;;;;;;0.00;0.00;;;;;;;;5036361;28;45440;-85
2022/11/01 10:26:11;;;;;;;;;3.00;1.25;;;;;;;;5053216;28;45797;-85
2022/11/01 10:28:58;;;;;;;;;1.00;1.00;;;;;;;;5062069;28;47271;-90
2022/11/01 10:31:30;;;;;;;;;1.00;1.00;;;;;;;;5049248;28;45815;-86
2022/11/01 10:33:55;;;;;;;;;2.00;2.00;;;;;;;;5063678;28;45433;-88
2022/11/01 10:36:24;;;;;;;;;2.00;0.00;;;;;;;;5058227;28;46776;-84
2022/11/01 10:38:57;;;;;;;;;2.00;1.00;;;;;;;;5057001;28;47196;-84
2022/11/01 10:41:36;;;;;;;;;1.75;1.00;;;;;;;;5060203;28;45572;-88
2022/11/01 10:44:04;;;;;;;;;0.00;0.00;;;;;;;;5055486;28;45462;-83
2022/11/01 10:46:40;;;;;;;;;2.75;1.25;;;;;;;;5049626;28;46639;-86
2022/11/01 10:49:13;;;;;;;;;3.00;1.00;;;;;;;;5048082;28;46977;-85
2022/11/01 10:51:46;;;;;;;;;2.00;2.00;;;;;;;;5057593;28;46200;-90
2022/11/01 10:54:27;;;;;;;;;1.75;1.00;;;;;;;;5071743;28;44854;-89
2022/11/01 10:56:54;;;;;;;;;2.00;2.00;;;;;;;;5065227;28;45498;-87
2022/11/01 10:59:31;;;;;;;;;0.00;0.00;;;;;;;;5049821;28;46105;-87
2022/11/01 11:01:59;;;;;;;;;5.00;2.00;;;;;;;;5048771;28;45610;-90
2022/11/01 11:04:36;;;;;;;;;2.00;0.00;;;;;;;;5044154;28;45581;-87
2022/11/01 11:07:27;;;;;;;;;2.00;2.00;;;;;;;;5062977;28;45568;-86
2022/11/01 11:10:07;;;;;;;;;1.25;1.25;;;;;;;;5031208;28;45984;-85
2022/11/01 11:12:41;;;;;;;;;3.00;1.00;;;;;;;;5048966;28;45616;-84
2022/11/01 11:15:18;;;;;;;;;4.50;1.75;;;;;;;;5050555;28;45756;-87
2022/11/01 11:17:56;;;;;;;;;3.75;1.50;;;;;;;;5046046;28;45466;-86
2022/11/01 11:23:42;;;;;;;;;0.00;0.00;;;;;;;;5044295;28;45552;-85
2022/11/01 11:32:57;;;;;;;;;3.25;1.00;;;;;;;;4889042;28;45633;-86
2022/11/01 11:35:59;;;;;;;;;;;;;;;;;;;;;
2022/11/01 11:47:52;;;;;;;;;6.00;3.00;;;;;;;;4944177;28;45518;-85
2022/11/01 11:50:18;;;;;;;;;2.50;0.00;;;;;;;;4955510;28;45705;-84
2022/11/01 11:53:05;;;;;;;;;;;;;;;;;;;;;
2022/11/01 11:55:51;;;;;;;;;2.00;2.00;;;;;;;;5041434;28;75754;-83
2022/11/01 11:58:23;;;;;;;;;1.00;0.75;;;;;;;;5047187;28;45806;-84
2022/11/01 12:01:14;;;;;;;;;1.75;1.00;;;;;;;;5032924;28;45788;-86
2022/11/01 12:03:45;;;;;;;;;1.25;1.25;;;;;;;;5025450;28;45741;-86
2022/11/01 12:06:16;;;;;;;;;0.00;0.00;;;;;;;;5051871;28;45860;-86
2022/11/01 12:08:44;;;;;;;;;1.00;1.00;;;;;;;;5037570;28;45820;-86
2022/11/01 12:11:09;;;;;;;;;1.00;1.00;;;;;;;;5042052;28;45586;-86
2022/11/01 12:13:39;;;;;;;;;2.75;0.75;;;;;;;;5057384;28;45531;-87
2022/11/01 12:16:05;;;;;;;;;5.00;1.00;;;;;;;;5057950;28;45770;-85
2022/11/01 12:18:31;;;;;;;;;1.00;1.00;;;;;;;;5056024;28;45669;-89
2022/11/01 12:20:59;;;;;;;;;0.75;0.00;;;;;;;;5026291;28;45840;-89
2022/11/01 12:23:56;;;;;;;;;;;;;;;;;;;;;
2022/11/01 12:26:24;;;;;;;;;4.50;1.75;;;;;;;;5033651;28;75245;-85
2022/11/01 12:28:57;;;;;;;;;0.50;0.50;;;;;;;;5053575;28;45486;-86
2022/11/01 12:31:34;;;;;;;;;2.25;0.75;;;;;;;;5040005;28;45445;-84
2022/11/01 12:34:25;;;;;;;;;0.25;0.25;;;;;;;;5041169;28;45985;-86
2022/11/01 12:37:11;;;;;;;;;2.75;0.25;;;;;;;;5042761;27;47638;-81
2022/11/01 12:39:56;;;;;;;;;5.00;5.00;;;;;;;;5068861;28;45433;-85
2022/11/01 12:42:50;;;;;;;;;4.00;3.00;;;;;;;;5056505;28;45473;-83
2022/11/01 12:45:21;;;;;;;;;3.33;2.00;;;;;;;;5075348;28;45583;-85
2022/11/01 12:47:49;;;;;;;;;0.50;0.50;;;;;;;;5057373;28;47365;-85
2022/11/01 12:50:14;;;;;;;;;2.25;1.00;;;;;;;;5053386;28;45481;-86
2022/11/01 12:52:59;;;;;;;;;4.50;0.50;;;;;;;;5062977;28;45770;-86
2022/11/01 12:55:34;;;;;;;;;1.00;1.00;;;;;;;;5061763;28;46447;-85
2022/11/01 12:57:59;;;;;;;;;2.00;1.00;;;;;;;;5061058;28;47013;-86
2022/11/01 13:00:34;;;;;;;;;2.50;1.00;;;;;;;;5080831;28;45418;-84
2022/11/01 13:03:24;;;;;;;;;2.25;1.75;;;;;;;;5083063;28;45840;-86
2022/11/01 13:05:56;;;;;;;;;2.00;2.00;;;;;;;;5070091;28;45396;-85
2022/11/01 13:08:31;;;;;;;;;2.75;1.25;;;;;;;;5079191;28;45500;-85
2022/11/01 13:11:03;;;;;;;;;2.00;2.00;;;;;;;;5063383;28;45276;-85
2022/11/01 13:13:40;;;;;;;;;4.00;1.50;;;;;;;;5078076;28;45453;-84
2022/11/01 13:16:14;;;;;;;;;7.50;1.00;;;;;;;;5074516;28;45941;-83
2022/11/01 13:18:51;;;;;;;;;2.75;2.25;;;;;;;;5064387;28;46610;-83
2022/11/01 13:21:16;;;;;;;;;1.00;1.00;;;;;;;;5059103;28;45852;-83
2022/11/01 13:23:56;;;;;;;;;2.25;2.00;;;;;;;;5077920;28;45402;-83
2022/11/01 13:26:23;;;;;;;;;2.00;2.00;;;;;;;;5069217;28;45444;-84
2022/11/01 13:29:07;;;;;;;;;2.00;1.00;;;;;;;;5086779;27;45551;-84
2022/11/01 13:31:48;;;;;;;;;1.50;1.50;;;;;;;;5060135;28;45538;-81
2022/11/01 13:34:32;;;;;;;;;0.00;0.00;;;;;;;;5049149;28;45664;-83
2022/11/01 13:37:04;;;;;;;;;1.75;0.00;;;;;;;;5078327;28;45284;-84
2022/11/01 13:39:48;;;;;;;;;0.00;0.00;;;;;;;;5077947;28;45497;-84
2022/11/01 13:42:17;;;;;;;;;0.00;0.00;;;;;;;;5068540;27;45595;-85
2022/11/01 13:44:49;;;;;;;;;1.75;1.25;;;;;;;;5068892;28;45576;-84
2022/11/01 13:47:35;;;;;;;;;2.25;1.00;;;;;;;;5056115;28;46174;-85
2022/11/01 13:50:12;;;;;;;;;1.00;1.00;;;;;;;;5069624;28;45630;-84
2022/11/01 13:52:44;;;;;;;;;3.75;2.00;;;;;;;;5071591;28;45420;-83
2022/11/01 13:55:22;;;;;;;;;0.25;0.25;;;;;;;;5054618;28;45722;-85
2022/11/01 13:57:47;;;;;;;;;2.00;2.00;;;;;;;;5072604;28;45418;-87
2022/11/01 14:00:32;;;;;;;;;3.50;1.00;;;;;;;;5077162;28;45405;-84
2022/11/01 14:03:00;;;;;;;;;2.50;0.75;;;;;;;;5073847;28;45571;-83
2022/11/01 14:05:36;;;;;;;;;1.25;0.75;;;;;;;;5058814;28;45915;-84
2022/11/01 14:08:01;;;;;;;;;0.25;0.25;;;;;;;;5075211;28;45439;-85
2022/11/01 14:10:26;;;;;;;;;3.00;2.00;;;;;;;;5058510;28;47066;-83
2022/11/01 14:12:55;;;;;;;;;1.25;0.75;;;;;;;;5058844;28;45355;-85
2022/11/01 14:15:21;;;;;;;;;2.00;1.50;;;;;;;;5068779;28;45734;-84
2022/11/01 14:17:56;;;;;;;;;0.75;0.50;;;;;;;;5069902;28;45862;-84
2022/11/01 14:20:24;;;;;;;;;2.75;1.00;;;;;;;;5076250;28;45743;-82
2022/11/01 14:22:49;;;;;;;;;2.25;1.00;;;;;;;;5074057;28;45387;-84
2022/11/01 14:25:15;;;;;;;;;0.25;0.25;;;;;;;;5074776;27;45479;-84
2022/11/01 14:27:44;;;;;;;;;0.50;0.50;;;;;;;;5056678;28;46160;-82
2022/11/01 14:30:24;;;;;;;;;3.50;1.00;;;;;;;;5076920;27;45833;-85
2022/11/01 14:32:57;;;;;;;;;4.00;1.00;;;;;;;;5061756;28;45342;-85
2022/11/01 14:35:25;;;;;;;;;0.00;0.00;;;;;;;;5074241;28;45434;-84
2022/11/01 14:37:52;;;;;;;;;1.00;0.00;;;;;;;;5056285;28;45843;-83
2022/11/01 14:40:41;;;;;;;;;3.25;1.75;;;;;;;;5071671;28;45551;-83
2022/11/01 14:43:29;;;;;;;;;0.00;0.00;;;;;;;;5056436;28;45845;-87
2022/11/01 14:46:17;;;;;;;;;3.50;1.25;;;;;;;;5059492;28;45379;-86
2022/11/01 14:48:48;;;;;;;;;4.00;0.00;;;;;;;;5048267;28;47237;-87
2022/11/01 14:51:32;;;;;;;;;3.50;2.00;;;;;;;;5059764;28;45524;-87
2022/11/01 14:54:23;;;;;;;;;2.00;0.25;;;;;;;;5056756;28;45499;-85
2022/11/01 14:57:08;;;;;;;;;3.00;2.00;;;;;;;;5058222;28;45439;-87
2022/11/01 14:59:46;;;;;;;;;1.00;1.00;;;;;;;;5071335;28;45505;-86
2022/11/01 15:02:22;;;;;;;;;0.50;0.00;;;;;;;;5066392;28;46075;-85
2022/11/01 15:05:00;;;;;;;;;1.50;1.00;;;;;;;;5059716;28;45919;-87
2022/11/01 15:13:53;;;;;;;;;;;;;;;;;;;;;
2022/11/01 15:16:50;;;;;;;;;;;;;;;;;;;;;
2022/11/01 15:19:26;;;;;;;;;2.25;0.75;;;;;;;;4985245;28;67281;-86
2022/11/01 15:22:18;;;;;;;;;2.00;0.75;;;;;;;;4990009;28;46013;-87
2022/11/01 15:24:51;;;;;;;;;0.00;0.00;;;;;;;;4960745;28;46107;-89
2022/11/01 15:27:20;;;;;;;;;5.00;1.25;;;;;;;;5069775;28;45594;-88
2022/11/01 15:29:59;;;;;;;;;1.00;1.00;;;;;;;;5043849;28;45826;-88
2022/11/01 15:32:40;;;;;;;;;;;;;;;;;;;;;
2022/11/01 15:36:18;;;;;;;;;;;;;;;;;;;;;
2022/11/01 15:39:43;;;;;;;;;;;;;;;;;;;;;
2022/11/01 15:42:08;;;;;;;;;1.00;0.00;;;;;;;;4985284;28;45641;-89
2022/11/01 15:45:07;;;;;;;;;;;;;;;;;;;;;
2022/11/01 15:48:06;;;;;;;;;0.25;0.00;;;;;;;;5017214;28;74585;-91
2022/11/01 15:51:14;;;;;;;;;;;;;;;;;;;;;
2022/11/01 15:53:45;;;;;;;;;1.00;1.00;;;;;;;;5009645;28;67859;-88
2022/11/01 15:56:59;;;;;;;;;3.00;1.33;;;;;;;;5043666;28;45718;-85
2022/11/01 15:59:52;;;;;;;;;4.50;0.00;;;;;;;;4988169;28;45080;-85
2022/11/01 16:02:46;;;;;;;;;0.25;0.25;;;;;;;;4958141;28;45541;-87
2022/11/01 16:05:34;;;;;;;;;3.00;0.00;;;;;;;;4989902;28;45492;-88
2022/11/01 16:11:44;;;;;;;;;;;;;;;;;;;;;
2022/11/01 16:15:03;;;;;;;;;3.00;1.00;;;;;;;;4926400;28;72557;-92
2022/11/01 16:17:58;;;;;;;;;;;;;;;;;;;;;